Lincoln, Idaho
Current Conditions -  °F | °C
As of 4:53 PM on Thursday 27 Nov 2014 (Local Time) from KIDA Reporting Station
Broken Clouds Broken Clouds  
Wind Chill: 53°   Ceiling: 11000
Heat Index: 53°   Visibility: 10mi
Dew Point: 31°   Wind: 10mph
Humidity: 43%   Direction: 180°S
Pressure: 30.11"   Gusts: NA
Location:  43.498°N, 111.73°W
Report Text: KIDA 272353Z 18009KT 10SM SCT080 BKN110 BKN200 12/M01 A3011 RMK AO2 SLP195 VIRGA DSNT N-NE MOV N T01171006 10144 20072 58008
Loading
Personal Weather Stations






























Interactive Weather Map New forecast layout! Learn more

10-Day Weather Forecast

Advertisements
Track Severe Weather on mobile